Time,TemperatureF,DewpointF,PressureIn,WindDirection,WindDirectionDegrees,WindSpeedMPH,WindSpeedGustMPH,Humidity,HourlyPrecipIn,Conditions,Clouds,dailyrainin,SoftwareType,DateUTC
2013-01-14 00:02:00,23.0,-99.9,-100.00,SSE,156,10.0,12.0,-999,-99.99,,,-99.99,,2013-01-14 08:02:00,
2013-01-14 00:12:00,23.0,-99.9,-100.00,SSE,156,10.0,12.0,-999,-99.99,,,-99.99,,2013-01-14 08:12:00,
2013-01-14 01:03:00,22.0,-99.9,-100.00,SE,142,9.0,10.0,-999,-99.99,,,-99.99,,2013-01-14 09:03:00,
2013-01-14 01:12:00,22.0,-99.9,-100.00,SE,142,9.0,10.0,-999,-99.99,,,-99.99,,2013-01-14 09:12:00,
2013-01-14 02:03:00,21.0,-99.9,-100.00,SSE,162,13.0,15.0,-999,-99.99,,,-99.99,,2013-01-14 10:03:00,
2013-01-14 02:12:00,21.0,-99.9,-100.00,SSE,162,13.0,15.0,-999,-99.99,,,-99.99,,2013-01-14 10:12:00,
2013-01-14 02:53:00,21.0,-99.9,-100.00,South,187,12.0,15.0,-999,-99.99,,,-99.99,,2013-01-14 10:53:00,
2013-01-14 03:02:00,21.0,-99.9,-100.00,South,187,12.0,15.0,-999,-99.99,,,-99.99,,2013-01-14 11:02:00,
2013-01-14 03:12:00,21.0,-99.9,-100.00,South,187,12.0,15.0,-999,-99.99,,,-99.99,,2013-01-14 11:12:00,
2013-01-14 03:53:00,21.0,-99.9,-100.00,SSW,194,12.0,13.0,-999,-99.99,,,-99.99,,2013-01-14 11:53:00,
2013-01-14 04:03:00,21.0,-99.9,-100.00,SSW,194,12.0,13.0,-999,-99.99,,,-99.99,,2013-01-14 12:03:00,
2013-01-14 04:12:00,21.0,-99.9,-100.00,SSW,194,12.0,13.0,-999,-99.99,,,-99.99,,2013-01-14 12:12:00,
2013-01-14 05:03:00,21.0,-99.9,-100.00,South,174,6.0,7.0,-999,-99.99,,,-99.99,,2013-01-14 13:03:00,
2013-01-14 05:13:00,21.0,-99.9,-100.00,South,174,6.0,7.0,-999,-99.99,,,-99.99,,2013-01-14 13:13:00,
2013-01-14 06:03:00,21.0,-99.9,-100.00,South,189,5.0,7.0,-999,-99.99,,,-99.99,,2013-01-14 14:03:00,
2013-01-14 06:13:00,21.0,-99.9,-100.00,South,189,5.0,7.0,-999,-99.99,,,-99.99,,2013-01-14 14:13:00,
2013-01-14 07:04:00,22.0,-99.9,-100.00,SSE,162,5.0,6.0,-999,-99.99,,,-99.99,,2013-01-14 15:04:00,
2013-01-14 07:13:00,22.0,-99.9,-100.00,SSE,162,5.0,6.0,-999,-99.99,,,-99.99,,2013-01-14 15:13:00,
2013-01-14 08:03:00,21.0,-99.9,-100.00,SSW,195,6.0,8.0,-999,-99.99,,,-99.99,,2013-01-14 16:03:00,
2013-01-14 08:13:00,21.0,-99.9,-100.00,SSW,195,6.0,8.0,-999,-99.99,,,-99.99,,2013-01-14 16:13:00,
2013-01-14 10:03:00,22.0,-99.9,-100.00,SSW,202,9.0,12.0,-999,-99.99,,,-99.99,,2013-01-14 18:03:00,
2013-01-14 10:13:00,22.0,-99.9,-100.00,SSW,202,9.0,12.0,-999,-99.99,,,-99.99,,2013-01-14 18:13:00,
2013-01-14 11:03:00,24.0,-99.9,-100.00,NE,52,3.0,5.0,-999,-99.99,,,-99.99,,2013-01-14 19:03:00,
2013-01-14 11:13:00,24.0,-99.9,-100.00,NE,52,3.0,5.0,-999,-99.99,,,-99.99,,2013-01-14 19:13:00,
2013-01-14 12:04:00,27.0,-99.9,-100.00,NE,40,2.0,5.0,-999,-99.99,,,-99.99,,2013-01-14 20:04:00,
2013-01-14 12:13:00,27.0,-99.9,-100.00,NE,40,2.0,5.0,-999,-99.99,,,-99.99,,2013-01-14 20:13:00,
2013-01-14 12:53:00,29.0,-99.9,-100.00,North,1,2.0,3.0,-999,-99.99,,,-99.99,,2013-01-14 20:53:00,
2013-01-14 13:03:00,29.0,-99.9,-100.00,North,1,2.0,3.0,-999,-99.99,,,-99.99,,2013-01-14 21:03:00,
2013-01-14 13:13:00,29.0,-99.9,-100.00,North,1,2.0,3.0,-999,-99.99,,,-99.99,,2013-01-14 21:13:00,
2013-01-14 14:03:00,30.0,-99.9,-100.00,NE,34,2.0,3.0,-999,-99.99,,,-99.99,,2013-01-14 22:03:00,
2013-01-14 14:13:00,30.0,-99.9,-100.00,NE,34,2.0,3.0,-999,-99.99,,,-99.99,,2013-01-14 22:13:00,
2013-01-14 16:03:00,30.0,-99.9,-100.00,NE,36,3.0,5.0,-999,-99.99,,,-99.99,,2013-01-15 00:03:00,
2013-01-14 16:12:00,30.0,-99.9,-100.00,NE,36,3.0,5.0,-999,-99.99,,,-99.99,,2013-01-15 00:12:00,
2013-01-14 16:53:00,29.0,-99.9,-100.00,North,5,6.0,8.0,-999,-99.99,,,-99.99,,2013-01-15 00:53:00,
2013-01-14 17:02:00,29.0,-99.9,-100.00,North,5,6.0,8.0,-999,-99.99,,,-99.99,,2013-01-15 01:02:00,
2013-01-14 17:12:00,29.0,-99.9,-100.00,North,5,6.0,8.0,-999,-99.99,,,-99.99,,2013-01-15 01:12:00,
2013-01-14 18:03:00,28.0,-99.9,-100.00,NNE,12,7.0,8.0,-999,-99.99,,,-99.99,,2013-01-15 02:03:00,
2013-01-14 18:12:00,28.0,-99.9,-100.00,NNE,12,7.0,8.0,-999,-99.99,,,-99.99,,2013-01-15 02:12:00,
2013-01-14 21:04:00,27.0,-99.9,-100.00,NE,38,6.0,7.0,-999,-99.99,,,-99.99,,2013-01-15 05:04:00,
2013-01-14 21:12:00,27.0,-99.9,-100.00,NE,38,6.0,7.0,-999,-99.99,,,-99.99,,2013-01-15 05:12:00,
2013-01-14 22:03:00,26.0,-99.9,-100.00,ENE,59,7.0,8.0,-999,-99.99,,,-99.99,,2013-01-15 06:03:00,
2013-01-14 22:12:00,26.0,-99.9,-100.00,ENE,59,7.0,8.0,-999,-99.99,,,-99.99,,2013-01-15 06:12:00,
2013-01-14 23:02:00,27.0,-99.9,-100.00,ENE,66,3.0,5.0,-999,-99.99,,,-99.99,,2013-01-15 07:02:00,
2013-01-14 23:12:00,27.0,-99.9,-100.00,ENE,66,3.0,5.0,-999,-99.99,,,-99.99,,2013-01-15 07:12:00,